»·PEaware :: FFT2591 KPHX-KSAN

FFT2591 :: KPHX-KSAN

FLIGHT INFORMATION

Flight Status: Arrived
Operator:
Frontier Airlines
More flights by this operator :: More flights under this callsign
Pilot: Hayden Y. (1870)
Aircraft: AIRBUS A320
(A320)
More flights by this aircraft type
Origin: KPHX Phoenix Sky Harbor Intl
United States
Destination: KSAN San Diego Intl-Lindbergh
United States
More flights between these airports :: More routes between these airports
Route: FYRBD1 MOHAK J2 HOGGZ LUCKI1
File this flight plan on PilotEdge
Remarks: RMK / SIMBRIEF
Altitude:
(Current/Filed)
34,000ft
Speed:
(Current/Filed)
443kts
Departed: 18-May-20 04:12 PM
Arrived: 18-May-20 05:08 PM
Distance/Time
Traveled:
264nm/0:56
Distance/Time
To Go:
Arrived

Flight Plot

Page will automatically refresh every two minutes.

Flight plan parsing failed; only flown route is shown


Map Options




Map Legend


Flown Route
Filed Route
Departure Airport
Arrival Airport
Navaid (VOR, NDB)
Fix

Horizontal Profiles

Position Reports

Time Latitude Longitude Heading Altitude Ground
Speed
18-May-20 15:13 33.437879 -112.009349 102 1149ft 0kts
18-May-20 15:14 33.437879 -112.009349 102 1149ft 0kts
18-May-20 15:15 33.437879 -112.009349 102 1149ft 0kts
18-May-20 15:16 33.437879 -112.009349 102 1149ft 0kts
18-May-20 15:17 33.437879 -112.009349 102 1149ft 0kts
18-May-20 15:18 33.437879 -112.009349 102 1149ft 0kts
18-May-20 15:19 33.437879 -112.009349 102 1149ft 0kts
18-May-20 15:20 33.437879 -112.009349 102 1149ft 0kts
18-May-20 15:21 33.437879 -112.009349 102 1149ft 0kts
18-May-20 15:22 33.437879 -112.009349 102 1149ft 0kts
18-May-20 15:23 33.437879 -112.009349 102 1149ft 0kts
18-May-20 15:24 33.437879 -112.009349 102 1149ft 0kts
18-May-20 15:25 33.437879 -112.009349 102 1149ft 0kts
18-May-20 15:26 33.437879 -112.009349 102 1149ft 0kts
18-May-20 15:27 33.437879 -112.009349 102 1149ft 0kts
18-May-20 15:28 33.437879 -112.009349 102 1149ft 0kts
18-May-20 15:29 33.437879 -112.009349 102 1149ft 0kts
18-May-20 15:30 33.437879 -112.009349 102 1149ft 0kts
18-May-20 15:31 33.437879 -112.009349 102 1149ft 0kts
18-May-20 15:32 33.437879 -112.009349 102 1149ft 0kts
18-May-20 15:33 33.437879 -112.009349 102 1149ft 0kts
18-May-20 15:34 33.437879 -112.009349 102 1149ft 0kts
18-May-20 15:35 33.437879 -112.009349 102 1149ft 0kts
18-May-20 15:36 33.437879 -112.009349 102 1149ft 0kts
18-May-20 15:37 33.437879 -112.009349 102 1149ft 0kts
18-May-20 15:38 33.437879 -112.009349 102 1149ft 0kts
18-May-20 15:39 33.437879 -112.009349 102 1149ft 0kts
18-May-20 15:40 33.437879 -112.009349 102 1149ft 0kts
18-May-20 15:41 33.437879 -112.009349 102 1149ft 0kts
18-May-20 15:42 33.437879 -112.009349 102 1149ft 0kts
18-May-20 15:43 33.437879 -112.009349 102 1149ft 0kts
18-May-20 15:44 33.437879 -112.009349 102 1149ft 0kts
18-May-20 15:45 33.437879 -112.009349 102 1149ft 0kts
18-May-20 15:46 33.437879 -112.009349 102 1149ft 0kts
18-May-20 15:47 33.437879 -112.009349 102 1149ft 0kts
18-May-20 15:48 33.437879 -112.009349 102 1149ft 0kts
18-May-20 15:49 33.437879 -112.009349 102 1149ft 0kts
18-May-20 15:50 33.437879 -112.009349 102 1149ft 0kts
18-May-20 15:51 33.437879 -112.009349 102 1149ft 0kts
18-May-20 15:52 33.437879 -112.009349 102 1149ft 0kts
18-May-20 15:53 33.437879 -112.009349 102 1149ft 0kts
18-May-20 15:54 33.437879 -112.009349 102 1149ft 0kts
18-May-20 15:55 33.437879 -112.009349 102 1149ft 0kts
18-May-20 15:56 33.437879 -112.009349 102 1149ft 0kts
18-May-20 15:57 33.437879 -112.009349 102 1149ft 0kts
18-May-20 15:58 33.437879 -112.009349 102 1149ft 0kts
18-May-20 15:59 33.437917 -112.010133 45 1149ft 2kts
18-May-20 16:00 33.437652 -112.010200 0 1149ft 0kts
18-May-20 16:01 33.437652 -112.010200 0 1149ft 0kts
18-May-20 16:02 33.437652 -112.010200 0 1149ft 0kts
18-May-20 16:03 33.438111 -112.010198 0 1149ft 2kts
18-May-20 16:04 33.438275 -112.010197 0 1149ft 0kts
18-May-20 16:05 33.438987 -112.010522 285 1149ft 4kts
18-May-20 16:06 33.438970 -112.012293 269 1149ft 7kts
18-May-20 16:07 33.438962 -112.015789 269 1149ft 14kts
18-May-20 16:08 33.439090 -112.020855 276 1149ft 15kts
18-May-20 16:09 33.439182 -112.026271 263 1149ft 16kts
18-May-20 16:10 33.439973 -112.029630 2 1149ft 9kts
18-May-20 16:11 33.440855 -112.023034 89 1149ft 101kts
18-May-20 16:12 33.440796 -111.969225 93 3083ft 167kts
18-May-20 16:13 33.436863 -111.906606 99 4136ft 208kts
18-May-20 16:14 33.405717 -111.848029 162 5495ft 234kts
18-May-20 16:15 33.353232 -111.877312 248 7951ft 240kts
18-May-20 16:16 33.359382 -111.960681 270 10017ft 271kts
18-May-20 16:17 33.342362 -112.053295 229 11205ft 317kts
18-May-20 16:18 33.286824 -112.139415 230 13645ft 332kts
18-May-20 16:19 33.231863 -112.229504 230 15984ft 341kts
18-May-20 16:20 33.174825 -112.321867 230 18113ft 350kts
18-May-20 16:21 33.116146 -112.416791 230 20036ft 360kts
18-May-20 16:22 33.055871 -112.514055 230 21772ft 369kts
18-May-20 16:23 32.993979 -112.613598 230 23327ft 378kts
18-May-20 16:24 32.947706 -112.727424 256 24725ft 400kts
18-May-20 16:25 32.931883 -112.859791 256 26054ft 406kts
18-May-20 16:27 32.913165 -112.993674 257 27299ft 413kts
18-May-20 16:28 32.894627 -113.129684 257 28434ft 419kts
18-May-20 16:29 32.875808 -113.266101 257 29900ft 414kts
18-May-20 16:30 32.857108 -113.400336 257 31248ft 410kts
18-May-20 16:31 32.838384 -113.533695 257 32460ft 406kts
18-May-20 16:32 32.819693 -113.665816 257 33538ft 403kts
18-May-20 16:33 32.800860 -113.797938 257 33830ft 408kts
18-May-20 16:34 32.781750 -113.931084 257 33822ft 408kts
18-May-20 16:35 32.774666 -114.063977 267 33784ft 399kts
18-May-20 16:36 32.780090 -114.197878 268 33833ft 408kts
18-May-20 16:37 32.785338 -114.332474 268 33854ft 407kts
18-May-20 16:38 32.808082 -114.464145 284 33831ft 409kts
18-May-20 16:39 32.844455 -114.592898 282 33829ft 414kts
18-May-20 16:40 32.877886 -114.723769 273 33838ft 408kts
18-May-20 16:41 32.876316 -114.856972 263 33848ft 402kts
18-May-20 16:42 32.873593 -114.988791 264 32563ft 394kts
18-May-20 16:42 32.870950 -115.095809 264 30816ft 382kts
18-May-20 16:44 32.867469 -115.238803 264 28626ft 361kts
18-May-20 16:45 32.864045 -115.346851 258 26980ft 346kts
18-May-20 16:45 32.851108 -115.439857 256 25515ft 337kts
18-May-20 16:46 32.834596 -115.547809 254 23834ft 328kts
18-May-20 16:47 32.817323 -115.653018 254 22243ft 319kts
18-May-20 16:48 32.800570 -115.754958 254 20768ft 311kts
18-May-20 16:49 32.784616 -115.854789 258 19381ft 304kts
18-May-20 16:50 32.777304 -115.954501 259 18047ft 298kts
18-May-20 16:51 32.769976 -116.051769 259 16751ft 294kts
18-May-20 16:52 32.762669 -116.147677 259 15559ft 288kts
18-May-20 16:53 32.755455 -116.241825 259 14337ft 285kts
18-May-20 16:54 32.748229 -116.335143 259 13073ft 283kts
18-May-20 16:55 32.741021 -116.427876 260 11744ft 281kts
18-May-20 16:56 32.733594 -116.519036 260 10369ft 274kts
18-May-20 16:57 32.724858 -116.608573 262 9025ft 271kts
18-May-20 16:58 32.716967 -116.697092 263 7659ft 266kts
18-May-20 16:59 32.711124 -116.772142 263 7031ft 230kts
18-May-20 17:00 32.700201 -116.843183 248 5723ft 217kts
18-May-20 17:01 32.679580 -116.909295 251 4523ft 210kts
18-May-20 17:02 32.679756 -116.969855 287 3728ft 178kts
18-May-20 17:03 32.694154 -117.027601 284 2900ft 183kts
18-May-20 17:04 32.706797 -117.079309 285 2024ft 133kts
18-May-20 17:05 32.716915 -117.120920 286 1320ft 130kts
18-May-20 17:06 32.726856 -117.162039 286 356ft 128kts
18-May-20 17:07 32.734447 -117.193301 285 29ft 26kts
18-May-20 17:08 32.734178 -117.196577 284 29ft 7kts
18-May-20 17:09 32.733008 -117.197363 203 29ft 0kts
18-May-20 17:10 32.732995 -117.197369 203 29ft 0kts
18-May-20 17:11 32.732929 -117.197766 309 29ft 1kts
18-May-20 17:12 32.732981 -117.197841 309 29ft 0kts

Navigation Log

Ident Type
Flight plan parsing failed, navigation log unavailable